Pays
Station

 

Conditions  météo  pour  Dothan, Dothan Airport  -  Etats-Unis    Etats-Unis

  
23 °C
    
 
 

METAR pour Dothan, Dothan Airport :

KDHN 161959Z AUTO 22005KT 3SM -TSRA BR SCT031 BKN055 OVC100 23/22 A3022 RMK AO2 LTG DSNT E AND NW P0000 T02280217

 

Voici le bulletin pour Dothan, Dothan Airport - Etats-Unis.
 
Le bulletin a été fait il y a 6 minutes, à 19:59 UTC .
Le vent soufflait à la vitesse de 2.6 mètres par seconde de Sud-ouest (220°).
 
La température était de 23 °C, avec un point de rosée à 22 °C.
La température ressentie était de 21 °C.
 
La pression atmosphérique était de 1023 hPa.
L'humidité relative était de 94.1%.
 
Il y avait 3 à 4/8ème de nébulosité à une hauteur de 945 mètres et 5 à 7/8ème de nébulosité à une hauteur de 1676 mètres. Le ciel était nuageux à partir d'une hauteur de 3048 mètres
 
La visibilité globale était de 4828 mètres.
 
Actuellement orage avec léger/legère pluie plus brume.

 
 
 

Pays :   A   B   C   D   E   F   G   H   I   J   K   L   M   N   O   P   Q   R   S   T   U   V   W   Y   Z

 

Partenaires :  Info Météo avec Met'info
Météo Marine avec MeteoMarine.net
Infos Site  |  Infos Légales  |  Crédits  |  Confidentialité
Contactez-nous  |  Ajouter aux favoris
© 2013-2018 METAR - Tous droits réservés